sensor_id;sensor_type;location;lat;lon;timestamp;temperature;humidity
84393;DHT22;74592;48.846;2.358;2024-03-08T00:01:09;11.10;43.60
84393;DHT22;74592;48.846;2.358;2024-03-08T00:03:35;11.10;43.80
84393;DHT22;74592;48.846;2.358;2024-03-08T00:06:00;11.10;43.80
84393;DHT22;74592;48.846;2.358;2024-03-08T00:08:29;11.00;43.60
84393;DHT22;74592;48.846;2.358;2024-03-08T00:10:56;11.10;43.90
84393;DHT22;74592;48.846;2.358;2024-03-08T00:13:21;11.00;44.10
84393;DHT22;74592;48.846;2.358;2024-03-08T00:15:58;11.10;44.00
84393;DHT22;74592;48.846;2.358;2024-03-08T00:18:30;10.90;44.00
84393;DHT22;74592;48.846;2.358;2024-03-08T00:20:56;10.90;44.70
84393;DHT22;74592;48.846;2.358;2024-03-08T00:23:21;11.00;44.00
84393;DHT22;74592;48.846;2.358;2024-03-08T00:25:58;11.00;43.80
84393;DHT22;74592;48.846;2.358;2024-03-08T00:28:24;11.10;44.00
84393;DHT22;74592;48.846;2.358;2024-03-08T00:30:50;10.90;44.70
84393;DHT22;74592;48.846;2.358;2024-03-08T00:33:15;10.90;44.50
84393;DHT22;74592;48.846;2.358;2024-03-08T00:35:41;10.90;44.80
84393;DHT22;74592;48.846;2.358;2024-03-08T00:38:06;10.80;44.60
84393;DHT22;74592;48.846;2.358;2024-03-08T00:40:32;10.80;44.80
84393;DHT22;74592;48.846;2.358;2024-03-08T00:42:58;10.80;44.70
84393;DHT22;74592;48.846;2.358;2024-03-08T00:45:23;10.60;44.90
84393;DHT22;74592;48.846;2.358;2024-03-08T00:47:49;10.70;45.60
84393;DHT22;74592;48.846;2.358;2024-03-08T00:50:15;10.60;45.30
84393;DHT22;74592;48.846;2.358;2024-03-08T00:52:40;10.40;45.80
84393;DHT22;74592;48.846;2.358;2024-03-08T00:55:06;10.50;46.00
84393;DHT22;74592;48.846;2.358;2024-03-08T00:57:33;10.40;46.10
84393;DHT22;74592;48.846;2.358;2024-03-08T00:59:58;10.50;46.30
84393;DHT22;74592;48.846;2.358;2024-03-08T01:02:24;10.40;45.90
84393;DHT22;74592;48.846;2.358;2024-03-08T01:04:50;10.50;46.10
84393;DHT22;74592;48.846;2.358;2024-03-08T01:07:15;10.40;45.90
84393;DHT22;74592;48.846;2.358;2024-03-08T01:09:41;10.40;46.10
84393;DHT22;74592;48.846;2.358;2024-03-08T01:12:07;10.50;46.20
84393;DHT22;74592;48.846;2.358;2024-03-08T01:14:32;10.60;46.00
84393;DHT22;74592;48.846;2.358;2024-03-08T01:16:58;10.50;46.10
84393;DHT22;74592;48.846;2.358;2024-03-08T01:19:24;10.50;46.00
84393;DHT22;74592;48.846;2.358;2024-03-08T01:21:50;10.40;46.10
84393;DHT22;74592;48.846;2.358;2024-03-08T01:24:15;10.30;46.40
84393;DHT22;74592;48.846;2.358;2024-03-08T01:26:41;10.30;46.50
84393;DHT22;74592;48.846;2.358;2024-03-08T01:29:06;10.30;46.80
84393;DHT22;74592;48.846;2.358;2024-03-08T01:31:32;10.30;46.50
84393;DHT22;74592;48.846;2.358;2024-03-08T01:33:58;10.30;46.80
84393;DHT22;74592;48.846;2.358;2024-03-08T01:36:23;10.30;46.70
84393;DHT22;74592;48.846;2.358;2024-03-08T01:38:50;10.30;46.80
84393;DHT22;74592;48.846;2.358;2024-03-08T01:41:16;10.30;47.00
84393;DHT22;74592;48.846;2.358;2024-03-08T01:43:43;10.30;46.80
84393;DHT22;74592;48.846;2.358;2024-03-08T01:46:08;10.30;46.80
84393;DHT22;74592;48.846;2.358;2024-03-08T01:48:34;10.30;46.80
84393;DHT22;74592;48.846;2.358;2024-03-08T01:51:00;10.30;46.90
84393;DHT22;74592;48.846;2.358;2024-03-08T01:53:26;10.20;47.00
84393;DHT22;74592;48.846;2.358;2024-03-08T01:55:54;10.10;47.40
84393;DHT22;74592;48.846;2.358;2024-03-08T01:58:21;10.10;47.30
84393;DHT22;74592;48.846;2.358;2024-03-08T02:00:47;10.20;47.10
84393;DHT22;74592;48.846;2.358;2024-03-08T02:03:17;10.20;47.40
84393;DHT22;74592;48.846;2.358;2024-03-08T02:05:43;10.10;47.40
84393;DHT22;74592;48.846;2.358;2024-03-08T02:08:09;10.10;47.50
84393;DHT22;74592;48.846;2.358;2024-03-08T02:10:38;10.10;47.30
84393;DHT22;74592;48.846;2.358;2024-03-08T02:13:04;10.10;48.10
84393;DHT22;74592;48.846;2.358;2024-03-08T02:18:14;10.00;47.40
84393;DHT22;74592;48.846;2.358;2024-03-08T02:20:40;10.00;47.60
84393;DHT22;74592;48.846;2.358;2024-03-08T02:23:05;10.10;47.80
84393;DHT22;74592;48.846;2.358;2024-03-08T02:25:30;10.00;47.70
84393;DHT22;74592;48.846;2.358;2024-03-08T02:27:56;10.00;48.10
84393;DHT22;74592;48.846;2.358;2024-03-08T02:30:21;10.00;47.90
84393;DHT22;74592;48.846;2.358;2024-03-08T02:32:47;10.00;47.40
84393;DHT22;74592;48.846;2.358;2024-03-08T02:35:12;10.10;47.80
84393;DHT22;74592;48.846;2.358;2024-03-08T02:37:38;9.90;47.90
84393;DHT22;74592;48.846;2.358;2024-03-08T02:40:04;10.00;47.60
84393;DHT22;74592;48.846;2.358;2024-03-08T02:42:30;10.00;47.60
84393;DHT22;74592;48.846;2.358;2024-03-08T02:44:56;9.90;47.80
84393;DHT22;74592;48.846;2.358;2024-03-08T02:47:21;10.00;47.90
84393;DHT22;74592;48.846;2.358;2024-03-08T02:49:47;10.00;47.50
84393;DHT22;74592;48.846;2.358;2024-03-08T02:52:12;9.80;48.10
84393;DHT22;74592;48.846;2.358;2024-03-08T02:54:38;9.70;48.50
84393;DHT22;74592;48.846;2.358;2024-03-08T02:57:03;9.50;49.00
84393;DHT22;74592;48.846;2.358;2024-03-08T02:59:29;9.50;49.80
84393;DHT22;74592;48.846;2.358;2024-03-08T03:01:54;9.50;49.00
84393;DHT22;74592;48.846;2.358;2024-03-08T03:04:21;9.50;49.10
84393;DHT22;74592;48.846;2.358;2024-03-08T03:06:46;9.50;49.40
84393;DHT22;74592;48.846;2.358;2024-03-08T03:09:12;9.60;49.00
84393;DHT22;74592;48.846;2.358;2024-03-08T03:11:38;9.60;49.00
84393;DHT22;74592;48.846;2.358;2024-03-08T03:14:04;9.60;48.70
84393;DHT22;74592;48.846;2.358;2024-03-08T03:16:29;9.50;48.90
84393;DHT22;74592;48.846;2.358;2024-03-08T03:18:55;9.60;48.80
84393;DHT22;74592;48.846;2.358;2024-03-08T03:21:22;9.50;49.10
84393;DHT22;74592;48.846;2.358;2024-03-08T03:23:47;9.50;49.20
84393;DHT22;74592;48.846;2.358;2024-03-08T03:26:13;9.40;49.30
84393;DHT22;74592;48.846;2.358;2024-03-08T03:28:42;9.50;49.20
84393;DHT22;74592;48.846;2.358;2024-03-08T03:31:08;9.40;49.10
84393;DHT22;74592;48.846;2.358;2024-03-08T03:33:39;9.30;49.40
84393;DHT22;74592;48.846;2.358;2024-03-08T03:36:05;9.40;49.30
84393;DHT22;74592;48.846;2.358;2024-03-08T03:38:30;9.40;49.20
84393;DHT22;74592;48.846;2.358;2024-03-08T03:40:56;9.40;49.00
84393;DHT22;74592;48.846;2.358;2024-03-08T03:43:23;9.30;49.40
84393;DHT22;74592;48.846;2.358;2024-03-08T03:45:48;9.40;49.30
84393;DHT22;74592;48.846;2.358;2024-03-08T03:48:14;9.40;49.20
84393;DHT22;74592;48.846;2.358;2024-03-08T03:50:40;9.30;49.20
84393;DHT22;74592;48.846;2.358;2024-03-08T03:53:05;9.30;49.30
84393;DHT22;74592;48.846;2.358;2024-03-08T03:55:34;9.20;49.50
84393;DHT22;74592;48.846;2.358;2024-03-08T03:57:59;9.20;49.70
84393;DHT22;74592;48.846;2.358;2024-03-08T04:00:26;9.20;49.50
84393;DHT22;74592;48.846;2.358;2024-03-08T04:02:52;9.30;49.20
84393;DHT22;74592;48.846;2.358;2024-03-08T04:05:17;9.40;49.10
84393;DHT22;74592;48.846;2.358;2024-03-08T04:07:43;9.40;48.90
84393;DHT22;74592;48.846;2.358;2024-03-08T04:10:11;9.30;49.20
84393;DHT22;74592;48.846;2.358;2024-03-08T04:12:36;9.30;49.20
84393;DHT22;74592;48.846;2.358;2024-03-08T04:15:02;9.40;49.20
84393;DHT22;74592;48.846;2.358;2024-03-08T04:17:28;9.40;48.80
84393;DHT22;74592;48.846;2.358;2024-03-08T04:19:53;9.40;49.10
84393;DHT22;74592;48.846;2.358;2024-03-08T04:22:19;9.30;49.20
84393;DHT22;74592;48.846;2.358;2024-03-08T04:24:45;9.40;49.40
84393;DHT22;74592;48.846;2.358;2024-03-08T04:27:11;9.40;49.30
84393;DHT22;74592;48.846;2.358;2024-03-08T04:29:36;9.40;49.30
84393;DHT22;74592;48.846;2.358;2024-03-08T04:32:03;9.30;49.10
84393;DHT22;74592;48.846;2.358;2024-03-08T04:34:29;9.30;49.40
84393;DHT22;74592;48.846;2.358;2024-03-08T04:36:56;9.30;49.50
84393;DHT22;74592;48.846;2.358;2024-03-08T04:39:22;9.30;49.50
84393;DHT22;74592;48.846;2.358;2024-03-08T04:41:51;9.30;50.20
84393;DHT22;74592;48.846;2.358;2024-03-08T04:44:16;9.30;49.40
84393;DHT22;74592;48.846;2.358;2024-03-08T04:46:43;9.30;49.20
84393;DHT22;74592;48.846;2.358;2024-03-08T04:49:08;9.30;49.10
84393;DHT22;74592;48.846;2.358;2024-03-08T04:51:33;9.10;49.50
84393;DHT22;74592;48.846;2.358;2024-03-08T04:53:59;9.10;50.10
84393;DHT22;74592;48.846;2.358;2024-03-08T04:56:25;9.20;49.70
84393;DHT22;74592;48.846;2.358;2024-03-08T04:58:51;9.20;49.50
84393;DHT22;74592;48.846;2.358;2024-03-08T05:01:16;9.20;49.50
84393;DHT22;74592;48.846;2.358;2024-03-08T05:03:42;9.10;49.70
84393;DHT22;74592;48.846;2.358;2024-03-08T05:06:07;9.20;49.60
84393;DHT22;74592;48.846;2.358;2024-03-08T05:08:33;9.20;49.60
84393;DHT22;74592;48.846;2.358;2024-03-08T05:10:59;9.10;49.60
84393;DHT22;74592;48.846;2.358;2024-03-08T05:13:30;9.20;49.40
84393;DHT22;74592;48.846;2.358;2024-03-08T05:15:55;9.10;49.50
84393;DHT22;74592;48.846;2.358;2024-03-08T05:18:23;9.20;49.80
84393;DHT22;74592;48.846;2.358;2024-03-08T05:20:49;9.20;49.50
84393;DHT22;74592;48.846;2.358;2024-03-08T05:23:15;9.10;49.60
84393;DHT22;74592;48.846;2.358;2024-03-08T05:25:40;9.10;49.50
84393;DHT22;74592;48.846;2.358;2024-03-08T05:28:06;9.00;49.90
84393;DHT22;74592;48.846;2.358;2024-03-08T05:30:32;9.00;49.60
84393;DHT22;74592;48.846;2.358;2024-03-08T05:32:57;8.90;49.70
84393;DHT22;74592;48.846;2.358;2024-03-08T05:35:23;8.90;50.00
84393;DHT22;74592;48.846;2.358;2024-03-08T05:37:49;8.80;50.10
84393;DHT22;74592;48.846;2.358;2024-03-08T05:40:15;8.80;50.40
84393;DHT22;74592;48.846;2.358;2024-03-08T05:42:40;8.80;50.40
84393;DHT22;74592;48.846;2.358;2024-03-08T05:45:06;8.80;50.40
84393;DHT22;74592;48.846;2.358;2024-03-08T05:47:32;8.80;50.30
84393;DHT22;74592;48.846;2.358;2024-03-08T05:50:00;8.80;50.40
84393;DHT22;74592;48.846;2.358;2024-03-08T05:52:26;8.80;50.10
84393;DHT22;74592;48.846;2.358;2024-03-08T05:54:52;8.80;50.30
84393;DHT22;74592;48.846;2.358;2024-03-08T05:57:17;8.80;50.40
84393;DHT22;74592;48.846;2.358;2024-03-08T05:59:43;8.90;49.90
84393;DHT22;74592;48.846;2.358;2024-03-08T06:02:08;8.80;50.10
84393;DHT22;74592;48.846;2.358;2024-03-08T06:04:34;8.90;49.90
84393;DHT22;74592;48.846;2.358;2024-03-08T06:06:59;8.90;49.50
84393;DHT22;74592;48.846;2.358;2024-03-08T06:09:25;9.00;49.60
84393;DHT22;74592;48.846;2.358;2024-03-08T06:11:53;8.90;49.50
84393;DHT22;74592;48.846;2.358;2024-03-08T06:14:19;8.90;49.90
84393;DHT22;74592;48.846;2.358;2024-03-08T06:16:45;9.00;49.50
84393;DHT22;74592;48.846;2.358;2024-03-08T06:19:10;8.90;49.50
84393;DHT22;74592;48.846;2.358;2024-03-08T06:21:37;8.90;49.90
84393;DHT22;74592;48.846;2.358;2024-03-08T06:24:02;8.90;49.60
84393;DHT22;74592;48.846;2.358;2024-03-08T06:26:28;8.90;49.30
84393;DHT22;74592;48.846;2.358;2024-03-08T06:28:54;8.90;49.40
84393;DHT22;74592;48.846;2.358;2024-03-08T06:31:19;8.80;49.70
84393;DHT22;74592;48.846;2.358;2024-03-08T06:33:45;8.80;49.90
84393;DHT22;74592;48.846;2.358;2024-03-08T06:36:10;8.80;49.70
84393;DHT22;74592;48.846;2.358;2024-03-08T06:38:42;8.90;50.20
84393;DHT22;74592;48.846;2.358;2024-03-08T06:41:11;8.80;49.50
84393;DHT22;74592;48.846;2.358;2024-03-08T06:43:45;8.70;49.90
84393;DHT22;74592;48.846;2.358;2024-03-08T06:46:12;8.60;50.50
84393;DHT22;74592;48.846;2.358;2024-03-08T06:48:39;8.60;50.70
84393;DHT22;74592;48.846;2.358;2024-03-08T06:51:06;8.70;50.20
84393;DHT22;74592;48.846;2.358;2024-03-08T06:53:32;8.70;50.20
84393;DHT22;74592;48.846;2.358;2024-03-08T06:56:01;8.70;50.30
84393;DHT22;74592;48.846;2.358;2024-03-08T06:58:27;8.60;50.40
84393;DHT22;74592;48.846;2.358;2024-03-08T07:00:53;8.60;50.40
84393;DHT22;74592;48.846;2.358;2024-03-08T07:03:19;8.60;50.50
84393;DHT22;74592;48.846;2.358;2024-03-08T07:05:45;8.60;50.20
84393;DHT22;74592;48.846;2.358;2024-03-08T07:08:10;8.60;50.20
84393;DHT22;74592;48.846;2.358;2024-03-08T07:10:39;8.70;50.00
84393;DHT22;74592;48.846;2.358;2024-03-08T07:13:07;8.70;49.90
84393;DHT22;74592;48.846;2.358;2024-03-08T07:15:32;8.60;50.10
84393;DHT22;74592;48.846;2.358;2024-03-08T07:17:58;8.70;50.30
84393;DHT22;74592;48.846;2.358;2024-03-08T07:20:25;8.80;50.00
84393;DHT22;74592;48.846;2.358;2024-03-08T07:22:51;8.70;49.70
84393;DHT22;74592;48.846;2.358;2024-03-08T07:25:17;8.70;49.60
84393;DHT22;74592;48.846;2.358;2024-03-08T07:27:53;8.70;49.70
84393;DHT22;74592;48.846;2.358;2024-03-08T07:30:28;8.80;49.60
84393;DHT22;74592;48.846;2.358;2024-03-08T07:33:09;8.90;49.50
84393;DHT22;74592;48.846;2.358;2024-03-08T07:35:40;8.90;49.40
84393;DHT22;74592;48.846;2.358;2024-03-08T07:38:06;8.90;49.30
84393;DHT22;74592;48.846;2.358;2024-03-08T07:40:37;9.10;49.20
84393;DHT22;74592;48.846;2.358;2024-03-08T07:43:10;9.10;49.10
84393;DHT22;74592;48.846;2.358;2024-03-08T07:45:40;9.10;49.10
84393;DHT22;74592;48.846;2.358;2024-03-08T07:48:06;9.10;49.00
84393;DHT22;74592;48.846;2.358;2024-03-08T07:50:38;9.10;48.70
84393;DHT22;74592;48.846;2.358;2024-03-08T07:53:07;9.10;48.50
84393;DHT22;74592;48.846;2.358;2024-03-08T07:55:34;9.00;48.90
84393;DHT22;74592;48.846;2.358;2024-03-08T07:58:00;9.10;49.00
84393;DHT22;74592;48.846;2.358;2024-03-08T08:00:26;9.10;49.00
84393;DHT22;74592;48.846;2.358;2024-03-08T08:02:53;9.10;48.80
84393;DHT22;74592;48.846;2.358;2024-03-08T08:05:19;9.30;48.60
84393;DHT22;74592;48.846;2.358;2024-03-08T08:07:45;9.30;48.40
84393;DHT22;74592;48.846;2.358;2024-03-08T08:10:15;9.40;48.50
84393;DHT22;74592;48.846;2.358;2024-03-08T08:12:50;9.50;48.30
84393;DHT22;74592;48.846;2.358;2024-03-08T08:15:17;9.60;48.00
84393;DHT22;74592;48.846;2.358;2024-03-08T08:17:43;9.60;47.40
84393;DHT22;74592;48.846;2.358;2024-03-08T08:20:10;9.70;47.50
84393;DHT22;74592;48.846;2.358;2024-03-08T08:22:37;9.70;47.70
84393;DHT22;74592;48.846;2.358;2024-03-08T08:25:04;9.80;47.90
84393;DHT22;74592;48.846;2.358;2024-03-08T08:27:30;9.80;47.20
84393;DHT22;74592;48.846;2.358;2024-03-08T08:29:55;9.90;47.40
84393;DHT22;74592;48.846;2.358;2024-03-08T08:32:22;9.70;47.30
84393;DHT22;74592;48.846;2.358;2024-03-08T08:34:47;9.80;47.50
84393;DHT22;74592;48.846;2.358;2024-03-08T08:37:13;9.80;47.40
84393;DHT22;74592;48.846;2.358;2024-03-08T08:39:38;9.90;47.50
84393;DHT22;74592;48.846;2.358;2024-03-08T08:42:07;9.90;47.20
84393;DHT22;74592;48.846;2.358;2024-03-08T08:44:35;9.90;47.20
84393;DHT22;74592;48.846;2.358;2024-03-08T08:47:01;10.00;47.10
84393;DHT22;74592;48.846;2.358;2024-03-08T08:49:26;10.10;46.90
84393;DHT22;74592;48.846;2.358;2024-03-08T08:51:52;10.20;46.70
84393;DHT22;74592;48.846;2.358;2024-03-08T08:54:19;10.40;46.50
84393;DHT22;74592;48.846;2.358;2024-03-08T08:56:46;10.40;45.90
84393;DHT22;74592;48.846;2.358;2024-03-08T08:59:14;10.50;45.90
84393;DHT22;74592;48.846;2.358;2024-03-08T09:01:40;10.60;45.70
84393;DHT22;74592;48.846;2.358;2024-03-08T09:04:05;10.60;45.70
84393;DHT22;74592;48.846;2.358;2024-03-08T09:06:31;10.70;46.00
84393;DHT22;74592;48.846;2.358;2024-03-08T09:08:57;10.70;46.20
84393;DHT22;74592;48.846;2.358;2024-03-08T09:11:23;10.70;45.60
84393;DHT22;74592;48.846;2.358;2024-03-08T09:14:00;10.70;45.40
84393;DHT22;74592;48.846;2.358;2024-03-08T09:16:27;10.70;45.80
84393;DHT22;74592;48.846;2.358;2024-03-08T09:18:52;10.80;45.70
84393;DHT22;74592;48.846;2.358;2024-03-08T09:21:18;10.80;45.40
84393;DHT22;74592;48.846;2.358;2024-03-08T09:23:44;11.00;45.40
84393;DHT22;74592;48.846;2.358;2024-03-08T09:26:10;11.10;45.10
84393;DHT22;74592;48.846;2.358;2024-03-08T09:28:38;11.20;44.80
84393;DHT22;74592;48.846;2.358;2024-03-08T09:31:04;11.20;44.80
84393;DHT22;74592;48.846;2.358;2024-03-08T09:33:30;11.30;44.80
84393;DHT22;74592;48.846;2.358;2024-03-08T09:35:56;11.30;44.20
84393;DHT22;74592;48.846;2.358;2024-03-08T09:38:25;11.30;44.50
84393;DHT22;74592;48.846;2.358;2024-03-08T09:40:51;11.30;44.40
84393;DHT22;74592;48.846;2.358;2024-03-08T09:43:18;11.40;45.00
84393;DHT22;74592;48.846;2.358;2024-03-08T09:45:45;11.40;44.40
84393;DHT22;74592;48.846;2.358;2024-03-08T09:48:12;11.50;44.60
84393;DHT22;74592;48.846;2.358;2024-03-08T09:50:42;11.70;44.50
84393;DHT22;74592;48.846;2.358;2024-03-08T09:53:09;11.70;44.00
84393;DHT22;74592;48.846;2.358;2024-03-08T09:55:38;11.90;44.00
84393;DHT22;74592;48.846;2.358;2024-03-08T09:58:08;11.90;43.60
84393;DHT22;74592;48.846;2.358;2024-03-08T10:00:56;12.00;43.60
84393;DHT22;74592;48.846;2.358;2024-03-08T10:03:23;12.00;43.60
84393;DHT22;74592;48.846;2.358;2024-03-08T10:05:51;12.10;44.00
84393;DHT22;74592;48.846;2.358;2024-03-08T10:08:17;12.20;43.70
84393;DHT22;74592;48.846;2.358;2024-03-08T10:10:42;12.20;42.90
84393;DHT22;74592;48.846;2.358;2024-03-08T10:13:09;12.30;42.90
84393;DHT22;74592;48.846;2.358;2024-03-08T10:15:39;12.40;42.20
84393;DHT22;74592;48.846;2.358;2024-03-08T10:18:06;12.30;41.60
84393;DHT22;74592;48.846;2.358;2024-03-08T10:20:32;12.40;42.40
84393;DHT22;74592;48.846;2.358;2024-03-08T10:23:03;12.40;42.00
84393;DHT22;74592;48.846;2.358;2024-03-08T10:25:33;12.50;42.70
84393;DHT22;74592;48.846;2.358;2024-03-08T10:28:00;12.50;42.60
84393;DHT22;74592;48.846;2.358;2024-03-08T10:30:29;12.50;42.40
84393;DHT22;74592;48.846;2.358;2024-03-08T10:32:55;12.60;42.10
84393;DHT22;74592;48.846;2.358;2024-03-08T10:35:21;12.60;42.30
84393;DHT22;74592;48.846;2.358;2024-03-08T10:37:52;12.70;42.70
84393;DHT22;74592;48.846;2.358;2024-03-08T10:40:33;12.70;42.50
84393;DHT22;74592;48.846;2.358;2024-03-08T10:42:59;12.80;42.50
84393;DHT22;74592;48.846;2.358;2024-03-08T10:47:57;13.00;42.30
84393;DHT22;74592;48.846;2.358;2024-03-08T10:50:25;13.00;41.90
84393;DHT22;74592;48.846;2.358;2024-03-08T10:52:52;13.10;42.00
84393;DHT22;74592;48.846;2.358;2024-03-08T10:55:18;13.10;41.80
84393;DHT22;74592;48.846;2.358;2024-03-08T10:57:46;13.20;41.90
84393;DHT22;74592;48.846;2.358;2024-03-08T11:00:13;13.30;41.80
84393;DHT22;74592;48.846;2.358;2024-03-08T11:02:43;13.40;41.50
84393;DHT22;74592;48.846;2.358;2024-03-08T11:05:38;13.50;41.50
84393;DHT22;74592;48.846;2.358;2024-03-08T11:08:19;13.70;41.30
84393;DHT22;74592;48.846;2.358;2024-03-08T11:10:53;13.80;41.10
84393;DHT22;74592;48.846;2.358;2024-03-08T11:13:41;14.00;40.90
84393;DHT22;74592;48.846;2.358;2024-03-08T11:19:00;14.40;40.30
84393;DHT22;74592;48.846;2.358;2024-03-08T11:21:32;14.60;38.80
84393;DHT22;74592;48.846;2.358;2024-03-08T11:24:00;14.80;38.40
84393;DHT22;74592;48.846;2.358;2024-03-08T11:26:26;14.90;38.80
84393;DHT22;74592;48.846;2.358;2024-03-08T11:28:51;15.00;37.90
84393;DHT22;74592;48.846;2.358;2024-03-08T11:31:22;15.20;38.20
84393;DHT22;74592;48.846;2.358;2024-03-08T11:33:48;15.40;37.20
84393;DHT22;74592;48.846;2.358;2024-03-08T11:36:24;15.40;36.80
84393;DHT22;74592;48.846;2.358;2024-03-08T11:38:51;15.60;36.90
84393;DHT22;74592;48.846;2.358;2024-03-08T11:41:19;15.70;36.80
84393;DHT22;74592;48.846;2.358;2024-03-08T11:43:47;15.80;36.10
84393;DHT22;74592;48.846;2.358;2024-03-08T11:46:13;16.00;36.80
84393;DHT22;74592;48.846;2.358;2024-03-08T11:48:40;16.20;36.40
84393;DHT22;74592;48.846;2.358;2024-03-08T11:51:12;16.40;35.60
84393;DHT22;74592;48.846;2.358;2024-03-08T11:53:39;16.40;35.50
84393;DHT22;74592;48.846;2.358;2024-03-08T11:56:09;16.60;35.20
84393;DHT22;74592;48.846;2.358;2024-03-08T11:58:35;16.90;34.90
84393;DHT22;74592;48.846;2.358;2024-03-08T12:01:10;17.10;34.80
84393;DHT22;74592;48.846;2.358;2024-03-08T12:03:40;17.30;34.30
84393;DHT22;74592;48.846;2.358;2024-03-08T12:06:11;17.50;33.50
84393;DHT22;74592;48.846;2.358;2024-03-08T12:08:38;17.80;33.00
84393;DHT22;74592;48.846;2.358;2024-03-08T12:11:04;17.90;32.50
84393;DHT22;74592;48.846;2.358;2024-03-08T12:13:32;18.00;32.80
84393;DHT22;74592;48.846;2.358;2024-03-08T12:16:04;18.00;32.80
84393;DHT22;74592;48.846;2.358;2024-03-08T12:18:34;18.00;32.50
84393;DHT22;74592;48.846;2.358;2024-03-08T12:21:13;18.00;32.40
84393;DHT22;74592;48.846;2.358;2024-03-08T12:23:44;18.00;32.30
84393;DHT22;74592;48.846;2.358;2024-03-08T12:26:17;18.00;32.50
84393;DHT22;74592;48.846;2.358;2024-03-08T12:28:45;17.90;32.50
84393;DHT22;74592;48.846;2.358;2024-03-08T12:31:15;17.90;33.00
84393;DHT22;74592;48.846;2.358;2024-03-08T12:33:49;17.70;33.00
84393;DHT22;74592;48.846;2.358;2024-03-08T12:36:16;17.50;33.80
84393;DHT22;74592;48.846;2.358;2024-03-08T12:38:49;17.50;33.60
84393;DHT22;74592;48.846;2.358;2024-03-08T12:41:15;17.50;33.60
84393;DHT22;74592;48.846;2.358;2024-03-08T12:43:43;17.60;33.90
84393;DHT22;74592;48.846;2.358;2024-03-08T12:46:14;17.80;34.00
84393;DHT22;74592;48.846;2.358;2024-03-08T12:48:40;17.70;33.30
84393;DHT22;74592;48.846;2.358;2024-03-08T12:51:08;17.90;34.00
84393;DHT22;74592;48.846;2.358;2024-03-08T12:53:34;18.10;33.00
84393;DHT22;74592;48.846;2.358;2024-03-08T12:56:00;18.30;32.80
84393;DHT22;74592;48.846;2.358;2024-03-08T12:58:26;18.40;32.30
84393;DHT22;74592;48.846;2.358;2024-03-08T13:00:52;18.50;32.10
84393;DHT22;74592;48.846;2.358;2024-03-08T13:03:18;18.60;31.20
84393;DHT22;74592;48.846;2.358;2024-03-08T13:05:43;18.50;32.10
84393;DHT22;74592;48.846;2.358;2024-03-08T13:08:09;18.20;32.00
84393;DHT22;74592;48.846;2.358;2024-03-08T13:10:39;18.00;32.90
84393;DHT22;74592;48.846;2.358;2024-03-08T13:13:05;17.80;33.20
84393;DHT22;74592;48.846;2.358;2024-03-08T13:15:30;17.70;33.50
84393;DHT22;74592;48.846;2.358;2024-03-08T13:17:56;17.30;34.40
84393;DHT22;74592;48.846;2.358;2024-03-08T13:20:25;17.30;34.80
84393;DHT22;74592;48.846;2.358;2024-03-08T13:22:54;17.10;34.70
84393;DHT22;74592;48.846;2.358;2024-03-08T13:25:20;17.00;34.80
84393;DHT22;74592;48.846;2.358;2024-03-08T13:27:46;17.00;34.90
84393;DHT22;74592;48.846;2.358;2024-03-08T13:30:13;16.80;35.10
84393;DHT22;74592;48.846;2.358;2024-03-08T13:32:40;16.70;35.40
84393;DHT22;74592;48.846;2.358;2024-03-08T13:35:09;16.60;35.70
84393;DHT22;74592;48.846;2.358;2024-03-08T13:37:40;16.60;35.50
84393;DHT22;74592;48.846;2.358;2024-03-08T13:40:29;16.70;35.90
84393;DHT22;74592;48.846;2.358;2024-03-08T13:42:59;16.60;35.70
84393;DHT22;74592;48.846;2.358;2024-03-08T13:45:50;16.70;36.10
84393;DHT22;74592;48.846;2.358;2024-03-08T13:48:17;16.60;35.90
84393;DHT22;74592;48.846;2.358;2024-03-08T13:50:43;16.60;35.70
84393;DHT22;74592;48.846;2.358;2024-03-08T13:53:09;16.60;36.10
84393;DHT22;74592;48.846;2.358;2024-03-08T13:55:35;16.60;36.00
84393;DHT22;74592;48.846;2.358;2024-03-08T13:58:01;16.70;36.00
84393;DHT22;74592;48.846;2.358;2024-03-08T14:00:30;16.80;35.90
84393;DHT22;74592;48.846;2.358;2024-03-08T14:02:59;16.80;35.70
84393;DHT22;74592;48.846;2.358;2024-03-08T14:05:27;16.80;35.70
84393;DHT22;74592;48.846;2.358;2024-03-08T14:07:58;16.80;35.80
84393;DHT22;74592;48.846;2.358;2024-03-08T14:10:34;16.80;36.10
84393;DHT22;74592;48.846;2.358;2024-03-08T14:13:00;16.80;35.40
84393;DHT22;74592;48.846;2.358;2024-03-08T14:15:33;16.80;35.20
84393;DHT22;74592;48.846;2.358;2024-03-08T14:18:00;16.80;35.80
84393;DHT22;74592;48.846;2.358;2024-03-08T14:20:36;16.80;35.30
84393;DHT22;74592;48.846;2.358;2024-03-08T14:23:01;16.70;35.80
84393;DHT22;74592;48.846;2.358;2024-03-08T14:25:27;16.70;35.60
84393;DHT22;74592;48.846;2.358;2024-03-08T14:27:55;16.70;35.70
84393;DHT22;74592;48.846;2.358;2024-03-08T14:30:24;16.70;35.70
84393;DHT22;74592;48.846;2.358;2024-03-08T14:33:04;16.70;35.50
84393;DHT22;74592;48.846;2.358;2024-03-08T14:35:37;16.60;36.50
84393;DHT22;74592;48.846;2.358;2024-03-08T14:38:03;16.70;35.80
84393;DHT22;74592;48.846;2.358;2024-03-08T14:40:28;16.70;35.60
84393;DHT22;74592;48.846;2.358;2024-03-08T14:42:56;16.60;35.40
84393;DHT22;74592;48.846;2.358;2024-03-08T14:45:21;16.70;35.60
84393;DHT22;74592;48.846;2.358;2024-03-08T14:47:50;16.70;35.50
84393;DHT22;74592;48.846;2.358;2024-03-08T14:50:19;16.80;35.60
84393;DHT22;74592;48.846;2.358;2024-03-08T14:52:46;16.80;35.80
84393;DHT22;74592;48.846;2.358;2024-03-08T14:55:23;16.80;35.20
84393;DHT22;74592;48.846;2.358;2024-03-08T14:57:49;16.80;35.60
84393;DHT22;74592;48.846;2.358;2024-03-08T15:00:17;16.70;35.50
84393;DHT22;74592;48.846;2.358;2024-03-08T15:02:53;16.70;35.80
84393;DHT22;74592;48.846;2.358;2024-03-08T15:05:19;16.70;36.00
84393;DHT22;74592;48.846;2.358;2024-03-08T15:07:46;16.70;35.60
84393;DHT22;74592;48.846;2.358;2024-03-08T15:10:12;16.60;35.80
84393;DHT22;74592;48.846;2.358;2024-03-08T15:12:42;16.60;35.80
84393;DHT22;74592;48.846;2.358;2024-03-08T15:15:12;16.60;35.40
84393;DHT22;74592;48.846;2.358;2024-03-08T15:17:39;16.60;35.50
84393;DHT22;74592;48.846;2.358;2024-03-08T15:20:06;16.60;35.40
84393;DHT22;74592;48.846;2.358;2024-03-08T15:22:47;16.60;35.70
84393;DHT22;74592;48.846;2.358;2024-03-08T15:25:12;16.60;35.70
84393;DHT22;74592;48.846;2.358;2024-03-08T15:27:48;16.70;36.10
84393;DHT22;74592;48.846;2.358;2024-03-08T15:30:14;16.70;35.60
84393;DHT22;74592;48.846;2.358;2024-03-08T15:32:45;16.80;36.00
84393;DHT22;74592;48.846;2.358;2024-03-08T15:35:13;16.80;35.70
84393;DHT22;74592;48.846;2.358;2024-03-08T15:37:40;16.70;35.50
84393;DHT22;74592;48.846;2.358;2024-03-08T15:40:11;16.70;35.30
84393;DHT22;74592;48.846;2.358;2024-03-08T15:42:56;16.60;35.10
84393;DHT22;74592;48.846;2.358;2024-03-08T15:45:23;16.60;35.20
84393;DHT22;74592;48.846;2.358;2024-03-08T15:47:52;16.50;35.70